Time;durP1;ratioP1;P1;durP2;ratioP2;P2;SDS_P1;SDS_P2;PMS_P1;PMS_P2;Temp;Humidity;BMP_temperature;BMP_pressure;BME280_temperature;BME280_humidity;BME280_pressure;Samples;Min_cycle;Max_cycle;Signal;HPM_P1;HPM_P2
2022/09/11 00:01:17;;;;;;;11.90;10.80;;;;;;;15.73;100.00;101777.75;6150778;23;20381;-72
2022/09/11 00:03:44;;;;;;;13.63;12.27;;;;;;;15.36;100.00;101725.94;6148774;23;21081;-72
2022/09/11 00:06:12;;;;;;;11.80;10.70;;;;;;;15.55;100.00;101756.72;6150015;23;20835;-72
2022/09/11 00:08:40;;;;;;;12.73;11.63;;;;;;;15.75;100.00;101784.59;6150540;23;20373;-72
2022/09/11 00:11:08;;;;;;;12.33;11.20;;;;;;;15.05;100.00;101673.38;6149911;23;20404;-72
2022/09/11 00:13:35;;;;;;;11.83;10.70;;;;;;;15.62;100.00;101771.06;6149268;23;20417;-72
2022/09/11 00:16:02;;;;;;;11.20;10.07;;;;;;;15.74;100.00;101804.59;6150003;23;20381;-71
2022/09/11 00:18:28;;;;;;;11.10;10.00;;;;;;;14.92;100.00;101670.66;6149068;23;20702;-71
2022/09/11 00:20:55;;;;;;;11.37;10.03;;;;;;;15.62;100.00;101781.88;6148988;23;20879;-72
2022/09/11 00:23:23;;;;;;;10.23;9.13;;;;;;;15.49;100.00;101766.50;6148663;23;20372;-72
2022/09/11 00:25:49;;;;;;;10.87;9.77;;;;;;;15.43;100.00;101764.63;6123597;23;20376;-72
2022/09/11 00:28:18;;;;;;;10.87;9.57;;;;;;;15.52;100.00;101778.78;6150078;23;20865;-71
2022/09/11 00:30:44;;;;;;;10.90;9.90;;;;;;;15.57;100.00;101781.69;6150267;23;20211;-72
2022/09/11 00:33:11;;;;;;;10.40;9.40;;;;;;;15.40;100.00;101767.75;6122814;23;20424;-70
2022/09/11 00:35:37;;;;;;;11.90;10.47;;;;;;;15.50;100.00;101776.25;6149670;23;20596;-70
2022/09/11 00:38:02;;;;;;;9.60;8.80;;;;;;;15.68;100.00;101780.22;6149114;23;20781;-70
2022/09/11 00:40:28;;;;;;;9.90;8.90;;;;;;;15.51;100.00;101777.13;6148969;23;20432;-70
2022/09/11 00:42:54;;;;;;;10.00;9.00;;;;;;;15.01;100.00;101674.81;6148548;23;20176;-70
2022/09/11 00:45:25;;;;;;;12.33;9.70;;;;;;;15.68;100.00;101772.13;6149402;23;20607;-71
2022/09/11 00:47:57;;;;;;;9.37;8.47;;;;;;;15.77;100.00;101765.47;6149025;23;20369;-71
2022/09/11 00:50:25;;;;;;;11.87;9.27;;;;;;;15.35;100.00;101743.22;6123546;23;20467;-70
2022/09/11 00:52:59;;;;;;;9.10;8.30;;;;;;;15.53;100.00;101781.25;6149243;23;20420;-71
2022/09/11 00:55:27;;;;;;;10.20;8.83;;;;;;;15.75;100.00;101776.50;6148774;23;20708;-70
2022/09/11 00:58:03;;;;;;;9.60;8.70;;;;;;;15.68;100.00;101788.34;6150181;23;20376;-70
2022/09/11 01:00:29;;;;;;;9.30;8.30;;;;;;;15.57;100.00;101803.31;6149109;23;20450;-71
2022/09/11 01:02:56;;;;;;;9.37;8.40;;;;;;;15.33;100.00;101726.34;6149232;23;20722;-71
2022/09/11 01:05:25;;;;;;;9.97;9.00;;;;;;;14.87;100.00;101651.56;6149515;23;20157;-71
2022/09/11 01:07:53;;;;;;;10.13;8.97;;;;;;;15.76;100.00;101790.84;6149903;23;20388;-70
2022/09/11 01:10:34;;;;;;;9.73;8.47;;;;;;;15.57;100.00;101776.28;6123226;23;20397;-71
2022/09/11 01:13:20;;;;;;;10.50;9.00;;;;;;;15.47;100.00;101773.16;6150648;23;20408;-71
2022/09/11 01:16:04;;;;;;;8.93;8.07;;;;;;;15.67;100.00;101787.50;6151351;23;20361;-71
2022/09/11 01:18:42;;;;;;;9.20;8.00;;;;;;;15.50;100.00;101776.25;6123947;23;20388;-70
2022/09/11 01:21:39;;;;;;;8.57;7.77;;;;;;;15.67;100.00;101787.50;6151901;23;20389;-70
2022/09/11 01:24:22;;;;;;;8.17;7.37;;;;;;;15.74;100.00;101795.66;6150829;23;20365;-70
2022/09/11 01:27:00;;;;;;;8.33;7.37;;;;;;;15.30;100.00;101748.41;6151575;23;20463;-73
2022/09/11 01:29:43;;;;;;;8.17;7.37;;;;;;;15.37;100.00;101798.75;6151282;23;20400;-72
2022/09/11 01:32:18;;;;;;;8.77;6.70;;;;;;;15.54;100.00;101801.03;6123780;23;20768;-72
2022/09/11 01:34:58;;;;;;;7.07;6.43;;;;;;;15.45;100.00;101777.94;6151915;23;20369;-72
2022/09/11 01:37:37;;;;;;;7.37;6.57;;;;;;;15.46;100.00;101787.72;6150909;23;20376;-72
2022/09/11 01:40:10;;;;;;;8.40;6.33;;;;;;;15.36;100.00;101790.81;6151633;23;20408;-72
2022/09/11 01:42:41;;;;;;;7.60;6.47;;;;;;;14.55;100.00;101674.78;6150489;23;20361;-72
2022/09/11 01:45:09;;;;;;;6.70;6.10;;;;;;;14.76;100.00;101693.50;6150757;23;20366;-72
2022/09/11 01:47:35;;;;;;;7.00;6.20;;;;;;;15.54;100.00;101795.63;6150193;23;20413;-72
2022/09/11 01:50:08;;;;;;;6.83;5.77;;;;;;;15.44;100.00;101766.28;6151354;23;20400;-72
2022/09/11 01:52:57;;;;;;;7.53;6.77;;;;;;;15.34;100.00;101760.47;6150387;23;20416;-72
2022/09/11 01:55:53;;;;;;;6.80;5.90;;;;;;;15.47;100.00;101792.91;6150536;23;20376;-72
2022/09/11 01:58:25;;;;;;;5.80;5.30;;;;;;;15.48;100.00;101809.97;6150330;23;20388;-72
2022/09/11 02:00:55;;;;;;;5.97;5.37;;;;;;;15.52;100.00;101792.28;6150890;23;20393;-72
2022/09/11 02:03:27;;;;;;;6.53;5.37;;;;;;;14.90;100.00;101699.78;6124268;23;20916;-73
2022/09/11 02:05:58;;;;;;;6.13;5.57;;;;;;;14.68;100.00;101672.09;6150582;23;20443;-72
2022/09/11 02:08:30;;;;;;;5.67;5.17;;;;;;;14.86;100.00;101679.59;6151065;23;20989;-72
2022/09/11 02:11:09;;;;;;;6.73;5.30;;;;;;;14.92;100.00;101717.41;6124888;23;20408;-72
2022/09/11 02:13:53;;;;;;;5.33;4.83;;;;;;;15.56;100.00;101796.22;6150043;23;20409;-72
2022/09/11 02:16:43;;;;;;;5.50;5.00;;;;;;;15.21;100.00;101776.69;6124697;23;20476;-73
2022/09/11 02:19:11;;;;;;;7.37;4.97;;;;;;;15.21;100.00;101798.28;6149439;23;20483;-72
2022/09/11 02:21:37;;;;;;;7.70;5.17;;;;;;;14.92;100.00;101770.59;6150031;23;20427;-73
2022/09/11 02:24:03;;;;;;;4.93;4.53;;;;;;;15.40;100.00;101808.31;6150286;23;20451;-72
2022/09/11 02:26:32;;;;;;;5.10;4.60;;;;;;;14.80;100.00;101718.22;6150672;23;20396;-73
2022/09/11 02:28:58;;;;;;;5.10;4.60;;;;;;;14.77;100.00;101714.06;6151425;23;20373;-73
2022/09/11 02:31:24;;;;;;;5.63;4.57;;;;;;;14.99;100.00;101755.25;6124536;23;20385;-73
2022/09/11 02:33:50;;;;;;;4.93;4.43;;;;;;;14.42;100.00;101665.59;6151618;23;20208;-73
2022/09/11 02:36:21;;;;;;;4.30;3.90;;;;;;;15.33;100.00;101808.31;6150186;23;20436;-73
2022/09/11 02:39:26;;;;;;;4.47;4.07;;;;;;;15.19;100.00;101794.97;6150814;23;20146;-73
2022/09/11 02:42:11;;;;;;;4.50;4.10;;;;;;;15.16;100.00;101804.34;6150800;23;20448;-72
2022/09/11 02:45:02;;;;;;;5.20;4.20;;;;;;;14.81;100.00;101782.00;6150844;23;20369;-73
2022/09/11 02:47:52;;;;;;;3.90;3.60;;;;;;;14.88;100.00;101735.06;6121924;23;20520;-73
2022/09/11 02:50:39;;;;;;;4.40;3.97;;;;;;;14.84;100.00;101735.69;6149898;23;20407;-73
2022/09/11 02:53:20;;;;;;;4.70;4.30;;;;;;;15.20;100.00;101819.09;6150521;23;20412;-73
2022/09/11 02:55:59;;;;;;;4.60;4.10;;;;;;;15.13;100.00;101821.78;6149621;23;20850;-73
2022/09/11 02:58:29;;;;;;;4.97;4.50;;;;;;;15.03;100.00;101821.34;6150840;23;20388;-72
2022/09/11 03:00:59;;;;;;;4.97;4.50;;;;;;;15.05;100.00;101821.16;6150103;23;20867;-73
2022/09/11 03:03:25;;;;;;;4.83;3.90;;;;;;;14.89;100.00;101838.53;6150354;23;20376;-72
2022/09/11 03:05:51;;;;;;;4.73;4.30;;;;;;;15.01;100.00;101825.28;6150724;23;20451;-72
2022/09/11 03:08:17;;;;;;;6.03;4.57;;;;;;;14.61;100.00;101784.63;6150284;23;20772;-72
2022/09/11 03:10:48;;;;;;;5.20;4.10;;;;;;;14.73;100.00;101810.06;6150303;23;20400;-72
2022/09/11 03:13:15;;;;;;;4.47;3.67;;;;;;;14.47;100.00;101738.69;6149573;23;20434;-72
2022/09/11 03:15:44;;;;;;;4.63;3.50;;;;;;;14.96;100.00;101830.47;6150306;23;20498;-72
2022/09/11 03:18:11;;;;;;;4.70;4.30;;;;;;;14.95;100.00;101828.81;6150353;23;20377;-72
2022/09/11 03:20:37;;;;;;;4.40;4.00;;;;;;;14.14;100.00;101705.34;6149893;23;20412;-72
2022/09/11 03:23:07;;;;;;;5.13;4.63;;;;;;;14.98;100.00;101823.00;6150268;23;20369;-72
2022/09/11 03:25:32;;;;;;;4.47;4.07;;;;;;;14.86;100.00;101828.97;6149680;23;20389;-72
2022/09/11 03:27:58;;;;;;;4.67;3.93;;;;;;;14.84;100.00;101836.47;6149834;23;20759;-72
2022/09/11 03:30:23;;;;;;;4.50;4.10;;;;;;;14.05;100.00;101688.50;6151411;23;20631;-72
2022/09/11 03:32:48;;;;;;;4.37;3.93;;;;;;;14.15;100.00;101729.44;6150760;23;20107;-72
2022/09/11 03:35:15;;;;;;;3.70;3.33;;;;;;;14.22;100.00;101735.69;6149991;23;20146;-72
2022/09/11 03:37:40;;;;;;;3.93;3.53;;;;;;;14.08;100.00;101723.16;6150192;23;20185;-73
2022/09/11 03:40:06;;;;;;;4.50;3.90;;;;;;;14.16;100.00;101733.78;6150143;23;20431;-72
2022/09/11 03:42:32;;;;;;;5.10;3.73;;;;;;;14.61;100.00;101819.75;6149047;23;20770;-72
2022/09/11 03:44:58;;;;;;;4.23;3.43;;;;;;;14.58;100.00;101802.09;6149769;23;20424;-72
2022/09/11 03:47:23;;;;;;;3.87;3.37;;;;;;;14.40;100.00;101780.19;6150373;23;20164;-72
2022/09/11 03:49:48;;;;;;;3.53;3.23;;;;;;;14.69;100.00;101822.28;6149291;23;20388;-72
2022/09/11 03:52:14;;;;;;;3.20;2.90;;;;;;;14.32;100.00;101756.91;6149340;23;20153;-72
2022/09/11 03:54:39;;;;;;;4.20;3.60;;;;;;;14.46;100.00;101782.94;6149954;23;20215;-73
2022/09/11 03:57:05;;;;;;;4.23;3.83;;;;;;;13.74;100.00;101684.41;6148870;23;20157;-72
2022/09/11 03:59:31;;;;;;;5.00;3.80;;;;;;;13.96;100.00;101705.88;6150234;23;20235;-73
2022/09/11 04:01:56;;;;;;;6.10;4.50;;;;;;;14.83;100.00;101833.97;6149489;23;20376;-72
2022/09/11 04:04:22;;;;;;;11.60;7.50;;;;;;;14.49;100.00;101789.75;6149957;23;20237;-73
2022/09/11 04:06:47;;;;;;;9.43;7.20;;;;;;;13.87;100.00;101712.47;6150140;23;20616;-72
2022/09/11 04:09:13;;;;;;;7.70;6.73;;;;;;;14.00;100.00;101720.63;6150010;23;20180;-73
2022/09/11 04:11:39;;;;;;;11.80;6.53;;;;;;;14.58;100.00;101848.00;6123870;23;20164;-72
2022/09/11 04:14:06;;;;;;;7.07;6.37;;;;;;;14.73;100.00;101855.13;6149468;23;20620;-72
2022/09/11 04:16:32;;;;;;;5.93;5.33;;;;;;;14.63;100.00;101858.19;6149865;23;20184;-72
2022/09/11 04:19:01;;;;;;;6.13;5.50;;;;;;;14.04;100.00;101788.50;6149747;23;20387;-73
2022/09/11 04:21:28;;;;;;;5.60;5.00;;;;;;;14.52;100.00;101873.06;6150128;23;20911;-72
2022/09/11 04:23:55;;;;;;;5.57;5.07;;;;;;;13.79;100.00;101751.22;6123887;23;20934;-73
2022/09/11 04:26:23;;;;;;;5.27;4.77;;;;;;;14.20;100.00;101807.06;6124221;23;20407;-73
2022/09/11 04:28:49;;;;;;;4.70;4.30;;;;;;;14.62;100.00;101875.44;6149106;23;20384;-72
2022/09/11 04:31:16;;;;;;;5.00;4.57;;;;;;;14.40;100.00;101861.16;6150274;23;20372;-73
2022/09/11 04:33:43;;;;;;;4.70;4.30;;;;;;;14.70;100.00;101869.88;6149341;23;20420;-73
2022/09/11 04:36:12;;;;;;;5.20;4.70;;;;;;;13.89;100.00;101794.03;6150076;23;20376;-73
2022/09/11 04:38:37;;;;;;;5.53;5.03;;;;;;;14.15;100.00;101782.56;6149990;23;20385;-72
2022/09/11 04:41:03;;;;;;;4.40;4.00;;;;;;;14.47;100.00;101889.03;6124279;23;20420;-72
2022/09/11 04:43:30;;;;;;;4.20;3.80;;;;;;;14.51;100.00;101895.69;6148985;23;20159;-72
2022/09/11 04:46:00;;;;;;;4.10;3.70;;;;;;;14.12;100.00;101809.94;6149978;23;20380;-73
2022/09/11 04:48:25;;;;;;;3.80;3.50;;;;;;;14.47;100.00;101900.66;6151758;23;20408;-72
2022/09/11 04:50:59;;;;;;;3.77;3.47;;;;;;;14.46;100.00;101885.50;6151810;23;20401;-72
2022/09/11 04:53:24;;;;;;;4.20;3.80;;;;;;;14.51;100.00;101890.28;6151255;23;20514;-72
2022/09/11 04:55:50;;;;;;;3.80;3.50;;;;;;;14.54;100.00;101900.72;6125412;23;20388;-72
2022/09/11 04:58:15;;;;;;;3.90;3.60;;;;;;;14.02;100.00;101815.69;6151916;23;20580;-73
2022/09/11 05:00:40;;;;;;;3.53;3.23;;;;;;;14.60;100.00;101904.50;6150777;23;20654;-73
2022/09/11 05:03:06;;;;;;;3.70;3.40;;;;;;;14.26;100.00;101844.03;6150803;23;20157;-72
2022/09/11 05:05:32;;;;;;;3.57;3.27;;;;;;;14.55;100.00;101909.66;6152509;23;20592;-72
2022/09/11 05:07:57;;;;;;;3.77;3.37;;;;;;;14.66;100.00;101904.50;6151914;23;20232;-72
2022/09/11 05:10:22;;;;;;;3.13;2.83;;;;;;;13.96;100.00;101795.72;6151589;23;20173;-72
2022/09/11 05:12:50;;;;;;;3.97;3.67;;;;;;;14.69;100.00;101895.19;6151192;23;20177;-72
2022/09/11 05:15:15;;;;;;;4.40;4.00;;;;;;;14.87;100.00;101895.50;6151302;23;20203;-72
2022/09/11 05:17:40;;;;;;;4.30;3.80;;;;;;;14.86;100.00;101910.00;6150281;23;20388;-72
2022/09/11 05:20:06;;;;;;;4.40;4.00;;;;;;;14.39;100.00;101837.91;6151042;23;20191;-73
2022/09/11 05:22:32;;;;;;;8.70;4.90;;;;;;;14.71;100.00;101908.50;6151082;23;20215;-72
2022/09/11 05:24:57;;;;;;;5.57;5.10;;;;;;;14.53;100.00;101834.25;6151889;23;20176;-72
2022/09/11 05:27:23;;;;;;;4.20;3.90;;;;;;;14.96;100.00;101896.16;6151465;23;20615;-72
2022/09/11 05:29:48;;;;;;;3.60;3.30;;;;;;;13.66;100.00;101727.72;6151612;23;20169;-71
2022/09/11 05:32:13;;;;;;;3.67;3.37;;;;;;;14.85;100.00;101927.25;6150673;23;20208;-72
2022/09/11 05:34:39;;;;;;;4.27;3.37;;;;;;;13.84;100.00;101756.03;6124349;23;20200;-72
2022/09/11 05:37:05;;;;;;;3.53;3.23;;;;;;;13.66;100.00;101708.84;6125864;23;20244;-72
2022/09/11 05:39:30;;;;;;;3.47;3.23;;;;;;;15.04;100.00;101920.28;6151494;23;20470;-72
2022/09/11 05:41:55;;;;;;;3.80;3.50;;;;;;;15.08;100.00;101921.53;6151716;23;20150;-72
2022/09/11 05:44:21;;;;;;;3.90;3.60;;;;;;;14.98;100.00;101888.66;6151512;23;20342;-72
2022/09/11 05:46:47;;;;;;;4.23;3.90;;;;;;;14.83;100.00;101872.59;6124404;23;20196;-72
2022/09/11 05:49:13;;;;;;;3.53;3.23;;;;;;;14.33;100.00;101817.13;6150929;23;20177;-72
2022/09/11 05:51:40;;;;;;;4.73;4.23;;;;;;;15.24;100.00;101933.03;6150350;23;20431;-72
2022/09/11 05:54:06;;;;;;;4.67;4.17;;;;;;;14.12;100.00;101775.69;6150305;23;20180;-72
2022/09/11 05:56:31;;;;;;;4.37;3.90;;;;;;;15.21;100.00;101936.97;6150487;23;20405;-72
2022/09/11 05:58:57;;;;;;;5.43;4.80;;;;;;;15.35;100.00;101924.31;6151878;23;20200;-72
2022/09/11 06:01:25;;;;;;;4.53;4.13;;;;;;;15.47;100.00;101941.59;6151075;23;20153;-72
2022/09/11 06:03:51;;;;;;;5.00;4.50;;;;;;;15.39;100.00;101952.63;6149946;23;20400;-73
2022/09/11 06:06:18;;;;;;;4.13;3.73;;;;;;;15.27;100.00;101938.00;6150969;23;20379;-72
2022/09/11 06:08:46;;;;;;;4.80;4.40;;;;;;;15.45;100.00;101954.53;6150758;23;20381;-72
2022/09/11 06:11:13;;;;;;;5.57;4.33;;;;;;;14.92;100.00;101867.84;6125546;23;20389;-72
2022/09/11 06:13:41;;;;;;;4.30;3.90;;;;;;;15.52;100.00;101960.75;6149479;23;20420;-72
2022/09/11 06:16:09;;;;;;;4.10;3.70;;;;;;;15.52;100.00;101968.88;6124498;23;20809;-72
2022/09/11 06:18:34;;;;;;;4.13;3.73;;;;;;;15.59;100.00;101980.56;6150881;23;20400;-72
2022/09/11 06:21:02;;;;;;;5.07;4.23;;;;;;;15.43;100.00;101951.19;6150607;23;20460;-72
2022/09/11 06:23:27;;;;;;;5.07;4.40;;;;;;;15.55;100.00;101965.75;6150517;23;20548;-72
2022/09/11 06:25:53;;;;;;;5.80;4.30;;;;;;;15.42;100.00;101933.31;6150128;23;20400;-72
2022/09/11 06:28:22;;;;;;;5.03;4.27;;;;;;;15.80;100.00;101981.47;6151037;23;20176;-72
2022/09/11 06:30:51;;;;;;;6.07;4.43;;;;;;;15.85;100.00;101987.06;6152241;23;20192;-72
2022/09/11 06:33:20;;;;;;;6.03;5.43;;;;;;;15.79;100.00;101986.03;6151077;23;20496;-72
2022/09/11 06:36:00;;;;;;;6.13;4.87;;;;;;;15.65;100.00;101946.44;6150394;23;20419;-72
2022/09/11 06:38:26;;;;;;;4.63;4.23;;;;;;;16.00;100.00;102024.78;6150928;23;20729;-72
2022/09/11 06:40:53;;;;;;;5.10;4.50;;;;;;;16.02;100.00;102004.56;6124288;23;20401;-72
2022/09/11 06:43:18;;;;;;;8.27;5.80;;;;;;;15.98;100.00;102006.03;6148241;23;20455;-73
2022/09/11 06:45:47;;;;;;;6.23;5.60;;;;;;;15.50;100.00;101922.28;6149747;23;20847;-72
2022/09/11 06:48:13;;;;;;;6.20;5.10;;;;;;;16.04;100.00;102012.50;6147479;23;20236;-72
2022/09/11 06:50:39;;;;;;;5.90;5.30;;;;;;;15.53;100.00;101923.72;6150618;23;20420;-72
2022/09/11 06:53:09;;;;;;;5.83;5.23;;;;;;;15.28;100.00;101904.56;6124454;23;21175;-72
2022/09/11 06:55:34;;;;;;;6.03;4.70;;;;;;;15.99;100.00;102004.16;6151736;23;20377;-72
2022/09/11 06:58:01;;;;;;;7.40;5.33;;;;;;;15.47;100.00;101932.66;6149778;23;20396;-72
2022/09/11 07:00:26;;;;;;;7.07;5.77;;;;;;;15.96;100.00;102002.69;6150278;23;20172;-72
2022/09/11 07:02:52;;;;;;;6.03;4.57;;;;;;;15.42;100.00;101916.22;6150848;23;20373;-70
2022/09/11 07:05:18;;;;;;;5.07;4.57;;;;;;;16.01;100.00;102002.91;6125790;23;20157;-70
2022/09/11 07:07:43;;;;;;;5.10;4.60;;;;;;;16.18;100.00;102016.88;6151029;23;20219;-70
2022/09/11 07:10:09;;;;;;;4.57;4.07;;;;;;;15.64;100.00;101943.94;6149317;23;20420;-70
2022/09/11 07:12:37;;;;;;;4.90;4.40;;;;;;;16.27;100.00;101987.72;6146560;23;20177;-70
2022/09/11 07:15:07;;;;;;;8.07;5.00;;;;;;;16.03;100.00;101956.72;6149947;23;20385;-72
2022/09/11 07:17:33;;;;;;;6.13;5.40;;;;;;;16.33;100.00;101984.19;6151003;23;20861;-72
2022/09/11 07:19:59;;;;;;;7.20;5.43;;;;;;;16.58;100.00;102002.50;6121282;23;20421;-72
2022/09/11 07:22:25;;;;;;;5.83;5.07;;;;;;;15.88;100.00;101900.09;6146229;23;20503;-72
2022/09/11 07:24:53;;;;;;;6.00;5.30;;;;;;;16.26;100.00;101946.28;6146745;23;20154;-72
2022/09/11 07:27:18;;;;;;;6.40;5.80;;;;;;;16.73;100.00;102022.91;6148725;23;20153;-71
2022/09/11 07:29:44;;;;;;;6.57;5.60;;;;;;;16.85;100.00;102025.81;6151014;23;20481;-72
2022/09/11 07:32:09;;;;;;;6.03;5.43;;;;;;;16.84;100.00;102020.63;6149637;23;20164;-72
2022/09/11 07:34:34;;;;;;;6.53;5.77;;;;;;;16.30;100.00;101933.16;6149065;23;20188;-72
2022/09/11 07:37:00;;;;;;;7.03;6.00;;;;;;;16.34;100.00;101934.41;6120802;23;20667;-72
2022/09/11 07:39:25;;;;;;;6.27;5.67;;;;;;;17.06;100.00;102029.31;6124305;23;20180;-72
2022/09/11 07:41:50;;;;;;;6.60;5.83;;;;;;;16.75;100.00;101982.06;6151372;23;20614;-72
2022/09/11 07:44:17;;;;;;;7.40;6.33;;;;;;;17.13;100.00;102038.28;6146134;23;20177;-71
2022/09/11 07:46:42;;;;;;;7.00;6.30;;;;;;;17.01;100.00;101997.44;6147887;23;20588;-72
2022/09/11 07:49:09;;;;;;;6.37;5.23;;;;;;;17.19;100.00;102023.88;6143903;23;20889;-72
2022/09/11 07:51:36;;;;;;;7.30;6.00;;;;;;;17.31;100.00;102027.56;6146405;23;20588;-71
2022/09/11 07:54:01;;;;;;;9.07;5.87;;;;;;;17.26;100.00;102023.84;6143165;23;20420;-71
2022/09/11 07:56:27;;;;;;;6.47;5.73;;;;;;;16.58;100.00;101905.00;6145383;23;20435;-70
2022/09/11 07:58:54;;;;;;;6.87;6.17;;;;;;;17.38;100.00;102025.66;6119169;23;20164;-72
2022/09/11 08:01:22;;;;;;;7.20;5.80;;;;;;;17.55;100.00;102034.13;6148515;23;20843;-71
2022/09/11 08:03:58;;;;;;;7.13;5.57;;;;;;;17.11;100.00;101943.59;6147909;23;20377;-70
2022/09/11 08:06:26;;;;;;;6.80;4.83;;;;;;;17.71;100.00;102032.81;6145039;23;20540;-72
2022/09/11 08:08:53;;;;;;;6.20;4.57;;;;;;;17.81;100.00;102027.75;6147214;23;20387;-72
2022/09/11 08:11:19;;;;;;;5.20;4.70;;;;;;;17.86;100.00;102029.00;6146167;23;20476;-70
2022/09/11 08:13:53;;;;;;;6.23;4.30;;;;;;;17.57;100.00;101955.25;6147227;23;20501;-71
2022/09/11 08:16:19;;;;;;;6.63;4.50;;;;;;;17.91;100.00;102021.88;6148771;23;20959;-71
2022/09/11 08:18:46;;;;;;;5.50;4.70;;;;;;;18.01;100.00;102021.38;6148112;23;20377;-70
2022/09/11 08:21:12;;;;;;;8.00;4.80;;;;;;;17.81;100.00;101995.19;6149042;23;20451;-68
2022/09/11 08:23:39;;;;;;;7.10;4.33;;;;;;;17.39;100.00;101921.56;6146508;23;20376;-68
2022/09/11 08:26:06;;;;;;;5.37;4.00;;;;;;;18.11;100.00;102027.16;6148129;23;20153;-68
2022/09/11 08:28:33;;;;;;;6.23;4.90;;;;;;;18.15;100.00;102028.38;6148523;23;20373;-68
2022/09/11 08:31:00;;;;;;;5.13;3.83;;;;;;;18.21;100.00;102023.94;6149367;23;20404;-68
2022/09/11 08:33:26;;;;;;;6.13;4.10;;;;;;;18.05;100.00;101996.28;6146479;23;20424;-68
2022/09/11 08:35:52;;;;;;;4.23;3.60;;;;;;;18.19;100.00;102017.91;6148376;23;20377;-69
2022/09/11 08:38:17;;;;;;;4.40;3.30;;;;;;;18.43;100.00;102033.38;6148339;23;20383;-68
2022/09/11 08:40:43;;;;;;;3.40;2.87;;;;;;;18.16;100.00;101997.44;6149600;23;20192;-69
2022/09/11 08:43:19;;;;;;;3.63;2.93;;;;;;;18.26;100.00;102015.97;6149504;23;20580;-68
2022/09/11 08:45:47;;;;;;;4.70;3.27;;;;;;;18.53;100.00;102025.53;6150756;23;20369;-68
2022/09/11 08:48:13;;;;;;;2.73;2.43;;;;;;;17.95;100.00;101929.97;6149926;23;20863;-69
2022/09/11 08:50:41;;;;;;;4.80;3.00;;;;;;;18.45;100.00;102027.72;6148941;23;20400;-68
2022/09/11 08:53:15;;;;;;;2.40;2.00;;;;;;;18.49;100.00;102018.91;6145887;23;20559;-69
2022/09/11 08:55:49;;;;;;;3.77;2.27;;;;;;;18.43;100.00;101998.06;6147381;23;20385;-70
2022/09/11 08:58:49;;;;;;;3.47;2.27;;;;;;;18.50;100.00;102009.69;6146489;23;20416;-69
2022/09/11 09:01:44;;;;;;;2.90;1.70;;;;;;;18.46;100.00;101975.06;6146312;23;20368;-69
2022/09/11 09:04:17;;;;;;;2.93;2.63;;;;;;;18.72;100.00;102015.56;6120455;23;20388;-70
2022/09/11 09:06:57;;;;;;;5.30;2.73;;;;;;;18.73;100.00;102003.66;6119463;23;20453;-71
2022/09/11 09:09:41;;;;;;;3.53;2.90;;;;;;;18.81;100.00;102013.41;6148185;23;20952;-71
2022/09/11 09:12:16;;;;;;;2.90;2.10;;;;;;;18.77;100.00;102003.19;6146501;23;20393;-70
2022/09/11 09:15:05;;;;;;;2.80;2.60;;;;;;;18.73;100.00;102017.22;6145098;23;20414;-72
2022/09/11 09:17:44;;;;;;;2.80;2.53;;;;;;;18.66;100.00;102018.31;6145902;23;21127;-73
2022/09/11 09:20:22;;;;;;;4.10;2.40;;;;;;;18.56;100.00;102002.53;6120540;23;20474;-74
2022/09/11 09:22:56;;;;;;;2.87;2.57;;;;;;;18.63;100.00;102025.06;6121126;23;20388;-73
2022/09/11 09:25:24;;;;;;;3.50;2.40;;;;;;;18.66;100.00;102019.16;6148964;23;20455;-72
2022/09/11 09:28:02;;;;;;;3.80;2.50;;;;;;;18.37;100.00;101954.66;6121698;23;20392;-74
2022/09/11 09:30:34;;;;;;;2.00;1.80;;;;;;;18.59;100.00;101977.63;6148602;23;20420;-73
2022/09/11 09:33:14;;;;;;;4.03;2.10;;;;;;;18.51;100.00;101945.31;6122266;23;20467;-73
2022/09/11 09:35:43;;;;;;;3.67;2.17;;;;;;;18.91;100.00;102018.31;6149702;23;20846;-73
2022/09/11 09:38:18;;;;;;;2.33;2.13;;;;;;;18.14;100.00;101909.09;6149850;23;20788;-72
2022/09/11 09:41:14;;;;;;;2.23;1.90;;;;;;;18.96;100.00;102015.75;6148454;23;20491;-73
2022/09/11 09:43:54;;;;;;;2.03;1.73;;;;;;;19.10;100.00;102013.72;6151001;23;20380;-72
2022/09/11 09:46:42;;;;;;;2.60;1.30;;;;;;;18.83;100.00;101962.34;6152237;23;20361;-73
2022/09/11 09:49:16;;;;;;;1.90;1.70;;;;;;;19.23;100.00;102001.84;6150617;23;20397;-72
2022/09/11 09:51:41;;;;;;;1.97;1.37;;;;;;;17.58;100.00;101746.13;6144962;23;20513;-76
2022/09/11 09:54:14;;;;;;;1.80;1.70;;;;;;;18.52;100.00;101887.22;6121348;23;20467;-76
2022/09/11 09:56:42;;;;;;;2.63;1.50;;;;;;;17.75;100.00;101767.28;6117600;23;20159;-72
2022/09/11 09:59:07;;;;;;;1.50;1.40;;;;;;;19.25;100.00;101999.72;6149389;23;20388;-72
2022/09/11 10:01:52;;;;;;;1.97;1.50;;;;;;;19.41;100.00;101999.94;6124022;23;20409;-72
2022/09/11 10:04:23;;;;;;;4.00;1.90;;;;;;;19.47;100.00;102003.63;6151489;23;20253;-72
2022/09/11 10:06:51;;;;;;;2.50;1.70;;;;;;;19.31;100.00;101979.75;6150401;23;20373;-72
2022/09/11 10:09:47;;;;;;;1.10;1.00;;;;;;;19.45;100.00;102004.91;6147882;23;20432;-72
2022/09/11 10:12:21;;;;;;;2.53;1.30;;;;;;;19.36;100.00;101963.59;6135759;23;21025;-72
2022/09/11 10:14:54;;;;;;;1.70;1.17;;;;;;;19.40;100.00;101960.16;6152173;23;20372;-72
2022/09/11 10:17:22;;;;;;;1.50;1.30;;;;;;;19.68;100.00;101998.78;6151890;23;20377;-72
2022/09/11 10:19:47;;;;;;;1.43;1.27;;;;;;;19.39;100.00;101954.97;6152109;23;20384;-73
2022/09/11 10:22:26;;;;;;;2.30;1.50;;;;;;;19.30;100.00;101959.06;6124294;23;20467;-72
2022/09/11 10:25:01;;;;;;;1.30;1.20;;;;;;;19.06;100.00;101914.59;6151973;23;20144;-72
2022/09/11 10:27:33;;;;;;;1.43;1.23;;;;;;;19.46;100.00;101984.78;6151730;23;20380;-72
2022/09/11 10:29:59;;;;;;;1.30;1.20;;;;;;;19.39;100.00;101966.69;6125879;23;20707;-73
2022/09/11 10:32:25;;;;;;;1.77;1.20;;;;;;;19.11;100.00;101945.50;6151094;23;20404;-73
2022/09/11 10:34:52;;;;;;;1.27;1.13;;;;;;;19.14;100.00;101987.72;6151852;23;20219;-72
2022/09/11 10:37:22;;;;;;;1.43;1.30;;;;;;;19.31;100.00;102006.97;6152449;23;20376;-73
2022/09/11 10:39:48;;;;;;;1.30;1.20;;;;;;;19.04;100.00;101962.97;6152318;23;20373;-73
2022/09/11 10:42:26;;;;;;;1.30;1.17;;;;;;;18.97;100.00;101949.44;6124515;23;20526;-73
2022/09/11 10:44:56;;;;;;;2.90;1.60;;;;;;;19.25;100.00;102002.44;6151545;23;20387;-74
2022/09/11 10:47:25;;;;;;;2.80;1.40;;;;;;;19.19;100.00;102009.63;6146454;23;20377;-74
2022/09/11 10:50:17;;;;;;;2.90;1.57;;;;;;;19.16;100.00;102001.94;6150362;23;20373;-75
2022/09/11 10:53:11;;;;;;;2.23;1.40;;;;;;;18.96;100.00;101983.94;6149887;23;20432;-77
2022/09/11 10:55:44;;;;;;;2.27;1.30;;;;;;;18.58;100.00;101924.34;6150040;23;20842;-74
2022/09/11 10:58:17;;;;;;;1.97;1.47;;;;;;;19.00;100.00;101992.47;6150044;23;20376;-74
2022/09/11 11:00:43;;;;;;;4.13;1.80;;;;;;;18.91;100.00;101994.66;6150547;23;20373;-75
2022/09/11 11:03:16;;;;;;;1.63;1.30;;;;;;;18.90;100.00;101990.28;6149980;23;20401;-76
2022/09/11 11:06:19;;;;;;;2.00;1.40;;;;;;;19.08;100.00;102010.38;6150005;23;20381;-76
2022/09/11 11:09:03;;;;;;;1.40;1.30;;;;;;;19.05;100.00;102022.53;6150877;23;20372;-77
2022/09/11 11:11:52;;;;;;;1.30;1.20;;;;;;;19.04;100.00;102012.72;6149647;23;20396;-77
2022/09/11 11:14:18;;;;;;;2.90;1.13;;;;;;;19.05;100.00;102008.13;6149252;23;20701;-77
2022/09/11 11:16:58;;;;;;;2.40;1.77;;;;;;;18.78;100.00;101972.25;6149675;23;20828;-76
2022/09/11 11:19:24;;;;;;;2.30;1.83;;;;;;;19.08;100.00;102013.94;6149843;23;20465;-77
2022/09/11 11:22:08;;;;;;;2.67;2.13;;;;;;;19.13;100.00;102013.25;6149946;23;20425;-77
2022/09/11 11:25:26;;;;;;;3.30;2.57;;;;;;;18.98;100.00;101978.31;6150016;23;20168;-77
2022/09/11 11:27:51;;;;;;;3.50;2.70;;;;;;;19.48;100.00;102005.28;6115144;23;20770;-76
2022/09/11 11:30:28;;;;;;;4.17;2.80;;;;;;;18.93;100.00;101878.38;6150310;23;20373;-73
2022/09/11 11:33:10;;;;;;;3.23;2.30;;;;;;;19.70;100.00;102002.06;6148671;23;20347;-73